createdAt,value
2024-05-09T00:00:40.866Z,14.95
2024-05-09T00:03:10.173Z,13.15
2024-05-09T00:05:43.949Z,12.63
2024-05-09T00:08:12.508Z,13.80
2024-05-09T00:10:42.333Z,12.48
2024-05-09T00:13:10.410Z,13.55
2024-05-09T00:15:38.241Z,13.98
2024-05-09T00:18:06.826Z,11.98
2024-05-09T00:20:38.957Z,11.07
2024-05-09T00:23:12.658Z,11.30
2024-05-09T00:25:43.617Z,11.77
2024-05-09T00:28:13.985Z,11.15
2024-05-09T00:30:41.629Z,12.23
2024-05-09T00:33:10.372Z,13.15
2024-05-09T00:35:38.954Z,13.35
2024-05-09T00:38:06.364Z,12.23
2024-05-09T00:40:42.341Z,10.60
2024-05-09T00:43:12.298Z,13.35
2024-05-09T00:45:40.265Z,12.10
2024-05-09T00:48:09.506Z,12.23
2024-05-09T00:50:40.601Z,12.05
2024-05-09T00:53:10.880Z,14.60
2024-05-09T00:55:38.925Z,11.80
2024-05-09T00:58:08.397Z,13.63
2024-05-09T01:00:39.440Z,14.23
2024-05-09T01:03:13.041Z,11.80
2024-05-09T01:05:42.339Z,13.77
2024-05-09T01:08:10.487Z,12.90
2024-05-09T01:10:38.333Z,14.55
2024-05-09T01:13:06.193Z,13.57
2024-05-09T01:15:34.515Z,16.05
2024-05-09T01:18:09.212Z,14.38
2024-05-09T01:20:41.617Z,16.58
2024-05-09T01:23:15.633Z,14.70
2024-05-09T01:25:44.830Z,15.95
2024-05-09T01:28:12.591Z,14.10
2024-05-09T01:30:39.474Z,15.70
2024-05-09T01:33:08.868Z,17.42
2024-05-09T01:35:38.785Z,14.27
2024-05-09T01:38:06.450Z,15.15
2024-05-09T01:40:38.373Z,15.20
2024-05-09T01:43:08.137Z,15.88
2024-05-09T01:45:36.032Z,15.18
2024-05-09T01:48:03.677Z,15.73
2024-05-09T01:50:38.243Z,15.00
2024-05-09T01:53:12.878Z,14.93
2024-05-09T01:55:40.172Z,15.15
2024-05-09T01:58:07.463Z,15.63
2024-05-09T02:00:39.752Z,14.88
2024-05-09T02:03:16.173Z,14.45
2024-05-09T02:05:49.513Z,15.82
2024-05-09T02:08:21.171Z,15.43
2024-05-09T02:10:50.026Z,14.38
2024-05-09T02:13:17.963Z,14.77
2024-05-09T02:15:45.459Z,15.88
2024-05-09T02:18:13.149Z,15.88
2024-05-09T02:20:43.560Z,14.98
2024-05-09T02:23:11.537Z,14.20
2024-05-09T02:25:38.691Z,14.25
2024-05-09T02:28:06.050Z,13.65
2024-05-09T02:30:39.431Z,14.80
2024-05-09T02:33:10.777Z,14.52
2024-05-09T02:35:39.854Z,14.30
2024-05-09T02:38:06.939Z,14.25
2024-05-09T02:40:37.703Z,16.25
2024-05-09T02:43:07.892Z,15.07
2024-05-09T02:45:35.277Z,16.10
2024-05-09T02:48:02.692Z,14.70
2024-05-09T02:50:37.130Z,15.27
2024-05-09T02:53:12.783Z,15.63
2024-05-09T02:55:41.135Z,14.68
2024-05-09T02:58:08.090Z,16.25
2024-05-09T03:00:39.739Z,16.20
2024-05-09T03:03:11.655Z,16.70
2024-05-09T03:05:41.810Z,13.18
2024-05-09T03:08:09.177Z,13.50
2024-05-09T03:10:38.453Z,14.75
2024-05-09T03:13:11.723Z,11.45
2024-05-09T03:15:38.731Z,12.35
2024-05-09T03:18:06.872Z,11.02
2024-05-09T03:20:35.901Z,12.60
2024-05-09T03:23:05.333Z,11.70
2024-05-09T03:25:32.818Z,13.30
2024-05-09T03:27:59.806Z,15.38
2024-05-09T03:30:38.511Z,12.10
2024-05-09T03:33:19.966Z,12.40
2024-05-09T03:35:48.414Z,12.73
2024-05-09T03:38:15.974Z,13.65
2024-05-09T03:40:48.048Z,13.20
2024-05-09T03:43:15.966Z,15.20
2024-05-09T03:45:43.556Z,14.20
2024-05-09T03:48:10.777Z,15.48
2024-05-09T03:50:38.300Z,13.85
2024-05-09T03:53:07.035Z,12.68
2024-05-09T03:55:33.883Z,13.85
2024-05-09T03:58:00.873Z,14.60
2024-05-09T04:00:35.541Z,14.82
2024-05-09T04:03:08.763Z,12.25
2024-05-09T04:05:39.778Z,13.07
2024-05-09T04:08:07.486Z,12.85
2024-05-09T04:10:35.311Z,13.00
2024-05-09T04:13:03.687Z,13.52
2024-05-09T04:15:31.245Z,13.77
2024-05-09T04:17:58.479Z,14.95
2024-05-09T04:20:35.948Z,14.13
2024-05-09T04:23:07.524Z,15.98
2024-05-09T04:25:35.184Z,14.88
2024-05-09T04:28:03.997Z,14.82
2024-05-09T04:30:37.630Z,14.40
2024-05-09T04:33:09.155Z,14.15
2024-05-09T04:35:38.919Z,16.33
2024-05-09T04:38:07.504Z,14.55
2024-05-09T04:40:36.745Z,14.52
2024-05-09T04:43:13.877Z,15.25
2024-05-09T04:45:41.080Z,14.70
2024-05-09T04:48:08.592Z,12.40
2024-05-09T04:50:38.627Z,13.43
2024-05-09T04:53:08.658Z,12.67
2024-05-09T04:55:37.138Z,12.07
2024-05-09T04:58:05.541Z,11.60
2024-05-09T05:00:37.227Z,11.63
2024-05-09T05:03:13.040Z,12.57
2024-05-09T05:05:43.380Z,11.32
2024-05-09T05:08:16.015Z,13.15
2024-05-09T05:10:43.938Z,13.23
2024-05-09T05:13:20.608Z,14.00
2024-05-09T05:15:57.275Z,13.07
2024-05-09T05:18:26.730Z,13.65
2024-05-09T05:20:55.729Z,13.77
2024-05-09T05:23:23.681Z,13.65
2024-05-09T05:25:54.282Z,13.60
2024-05-09T05:28:23.807Z,17.50
2024-05-09T05:30:51.128Z,12.15
2024-05-09T05:33:19.124Z,12.85
2024-05-09T05:35:46.497Z,12.52
2024-05-09T05:38:13.447Z,13.02
2024-05-09T05:40:41.092Z,11.68
2024-05-09T05:43:10.290Z,11.82
2024-05-09T05:45:38.464Z,13.70
2024-05-09T05:48:07.252Z,11.18
2024-05-09T05:50:37.510Z,11.00
2024-05-09T05:53:09.346Z,10.47
2024-05-09T05:55:37.734Z,11.05
2024-05-09T05:58:04.808Z,11.23
2024-05-09T06:00:38.347Z,10.55
2024-05-09T06:03:07.777Z,9.77
2024-05-09T06:05:36.257Z,11.65
2024-05-09T06:08:03.369Z,9.73
2024-05-09T06:10:37.625Z,11.23
2024-05-09T06:13:07.398Z,9.88
2024-05-09T06:15:34.531Z,8.85
2024-05-09T06:18:01.850Z,9.18
2024-05-09T06:20:35.632Z,8.30
2024-05-09T06:23:06.331Z,9.95
2024-05-09T06:25:34.499Z,10.45
2024-05-09T06:28:02.292Z,9.75
2024-05-09T06:30:37.888Z,9.43
2024-05-09T06:33:09.597Z,8.88
2024-05-09T06:35:37.478Z,8.65
2024-05-09T06:38:04.909Z,7.65
2024-05-09T06:40:37.908Z,8.65
2024-05-09T06:43:17.748Z,8.70
2024-05-09T06:45:47.954Z,9.23
2024-05-09T06:48:17.802Z,8.02
2024-05-09T06:50:45.243Z,9.57
2024-05-09T06:53:14.467Z,9.18
2024-05-09T06:55:41.435Z,8.23
2024-05-09T06:58:09.215Z,8.27
2024-05-09T07:00:39.779Z,8.55
2024-05-09T07:03:14.686Z,9.35
2024-05-09T07:05:44.136Z,8.23
2024-05-09T07:08:12.302Z,8.60
2024-05-09T07:10:39.208Z,6.57
2024-05-09T07:13:13.492Z,8.00
2024-05-09T07:15:41.462Z,9.38
2024-05-09T07:18:17.197Z,7.53
2024-05-09T07:20:45.762Z,9.65
2024-05-09T07:23:13.250Z,7.50
2024-05-09T07:25:41.020Z,7.53
2024-05-09T07:28:18.548Z,7.07
2024-05-09T07:30:45.655Z,7.80
2024-05-09T07:33:21.337Z,7.75
2024-05-09T07:35:49.817Z,8.07
2024-05-09T07:38:16.739Z,8.73
2024-05-09T07:40:43.769Z,6.53
2024-05-09T07:43:14.428Z,7.80
2024-05-09T07:45:50.705Z,7.10
2024-05-09T07:53:39.387Z,5.00
2024-05-09T07:56:13.224Z,6.90
2024-05-09T07:58:43.430Z,6.35
2024-05-09T08:01:10.368Z,6.65
2024-05-09T08:03:38.189Z,8.95
2024-05-09T08:06:05.343Z,6.68
2024-05-09T08:08:32.170Z,5.72
2024-05-09T08:10:59.056Z,5.55
2024-05-09T08:13:25.854Z,5.25
2024-05-09T08:15:52.997Z,5.85
2024-05-09T08:18:20.204Z,7.07
2024-05-09T08:20:49.133Z,6.60
2024-05-09T08:23:16.458Z,6.47
2024-05-09T08:25:43.891Z,5.43
2024-05-09T08:28:11.599Z,4.25
2024-05-09T08:30:38.753Z,5.35
2024-05-09T08:33:07.042Z,6.15
2024-05-09T08:35:35.654Z,6.30
2024-05-09T08:38:07.424Z,4.53
2024-05-09T08:40:37.260Z,7.03
2024-05-09T08:43:10.820Z,6.07
2024-05-09T08:45:44.026Z,5.75
2024-05-09T08:48:13.878Z,4.68
2024-05-09T08:50:41.886Z,5.70
2024-05-09T08:53:09.370Z,4.63
2024-05-09T08:55:40.622Z,5.45
2024-05-09T08:58:15.117Z,4.68
2024-05-09T09:00:43.974Z,4.97
2024-05-09T09:03:19.625Z,4.97
2024-05-09T09:06:08.894Z,8.93
2024-05-09T09:08:46.376Z,4.40
2024-05-09T09:11:15.942Z,4.68
2024-05-09T09:13:42.987Z,7.85
2024-05-09T09:16:09.941Z,4.38
2024-05-09T09:18:37.054Z,4.55
2024-05-09T09:21:04.309Z,4.93
2024-05-09T09:23:31.330Z,6.05
2024-05-09T09:26:00.180Z,6.50
2024-05-09T09:28:27.252Z,6.07
2024-05-09T09:31:00.704Z,5.07
2024-05-09T09:33:31.190Z,6.60
2024-05-09T09:35:58.226Z,6.23
2024-05-09T09:38:29.173Z,5.70
2024-05-09T09:40:56.189Z,4.85
2024-05-09T09:43:23.745Z,3.92
2024-05-09T09:45:52.932Z,5.13
2024-05-09T09:48:22.186Z,6.30
2024-05-09T09:50:51.954Z,5.38
2024-05-09T09:53:19.450Z,5.72
2024-05-09T09:55:47.153Z,4.53
2024-05-09T09:58:17.057Z,3.50
2024-05-09T10:00:44.939Z,4.88
2024-05-09T10:03:12.094Z,4.47
2024-05-09T10:05:42.057Z,5.47
2024-05-09T10:08:12.186Z,4.68
2024-05-09T10:10:39.864Z,4.57
2024-05-09T10:13:07.892Z,6.32
2024-05-09T10:15:46.035Z,4.68
2024-05-09T10:18:13.499Z,5.05
2024-05-09T10:20:44.881Z,4.25
2024-05-09T10:23:32.596Z,5.88
2024-05-09T10:26:01.574Z,3.92
2024-05-09T10:28:29.859Z,5.22
2024-05-09T10:31:23.379Z,6.47
2024-05-09T10:33:52.694Z,5.47
2024-05-09T10:36:21.913Z,4.85
2024-05-09T10:38:49.856Z,4.88
2024-05-09T10:41:17.839Z,5.60
2024-05-09T10:43:45.283Z,4.25
2024-05-09T10:46:13.595Z,4.22
2024-05-09T10:48:43.472Z,5.53
2024-05-09T10:51:11.324Z,4.20
2024-05-09T10:53:45.544Z,4.47
2024-05-09T10:56:15.903Z,6.10
2024-05-09T10:58:43.156Z,7.05
2024-05-09T11:01:10.969Z,5.10
2024-05-09T11:03:39.040Z,5.18
2024-05-09T11:06:06.995Z,4.68
2024-05-09T11:08:35.537Z,5.93
2024-05-09T11:11:07.163Z,4.00
2024-05-09T11:13:36.250Z,5.07
2024-05-09T11:16:04.889Z,3.65
2024-05-09T11:18:36.504Z,4.45
2024-05-09T11:21:13.216Z,3.53
2024-05-09T11:23:40.931Z,4.78
2024-05-09T11:26:09.030Z,3.75
2024-05-09T11:28:36.261Z,5.68
2024-05-09T11:31:10.422Z,6.18
2024-05-09T11:33:43.398Z,5.80
2024-05-09T11:36:10.975Z,4.25
2024-05-09T11:38:37.917Z,5.18
2024-05-09T11:41:05.932Z,4.13
2024-05-09T11:43:33.446Z,5.03
2024-05-09T11:46:02.642Z,4.30
2024-05-09T11:48:30.111Z,4.47
2024-05-09T11:50:57.267Z,6.57
2024-05-09T11:53:24.203Z,4.85
2024-05-09T11:55:51.156Z,5.15
2024-05-09T11:58:19.306Z,7.43
2024-05-09T12:00:47.138Z,4.47
2024-05-09T12:03:14.505Z,5.35
2024-05-09T12:05:41.787Z,3.45
2024-05-09T12:08:09.401Z,9.63
2024-05-09T12:10:37.139Z,5.65
2024-05-09T12:13:06.272Z,5.00
2024-05-09T12:15:37.289Z,4.15
2024-05-09T12:18:05.947Z,3.60
2024-05-09T12:20:37.599Z,4.85
2024-05-09T12:23:07.852Z,3.85
2024-05-09T12:25:36.239Z,5.63
2024-05-09T12:28:03.440Z,3.88
2024-05-09T12:30:36.715Z,4.72
2024-05-09T12:33:08.419Z,4.55
2024-05-09T12:35:35.660Z,4.07
2024-05-09T12:38:03.353Z,3.28
2024-05-09T12:40:36.118Z,4.25
2024-05-09T12:43:10.139Z,4.22
2024-05-09T12:45:38.373Z,4.07
2024-05-09T12:48:08.485Z,5.43
2024-05-09T12:50:36.850Z,5.20
2024-05-09T12:53:05.073Z,3.00
2024-05-09T12:55:40.843Z,4.40
2024-05-09T12:58:16.083Z,3.22
2024-05-09T13:00:44.044Z,3.35
2024-05-09T13:03:11.338Z,4.95
2024-05-09T13:05:41.009Z,5.70
2024-05-09T13:08:08.187Z,3.50
2024-05-09T13:10:35.325Z,6.22
2024-05-09T13:13:02.489Z,4.68
2024-05-09T13:15:34.605Z,8.20
2024-05-09T13:18:03.249Z,5.78
2024-05-09T13:20:34.291Z,5.20
2024-05-09T13:23:04.886Z,4.28
2024-05-09T13:25:34.174Z,4.75
2024-05-09T13:28:01.175Z,8.45
2024-05-09T13:30:37.334Z,5.82
2024-05-09T13:33:08.198Z,4.85
2024-05-09T13:35:36.033Z,4.40
2024-05-09T13:38:04.463Z,2.75
2024-05-09T13:40:34.776Z,4.07
2024-05-09T13:45:31.209Z,5.78
2024-05-09T13:47:58.340Z,5.22
2024-05-09T13:50:33.269Z,4.63
2024-05-09T13:53:04.702Z,4.07
2024-05-09T13:55:32.440Z,4.10
2024-05-09T13:57:59.400Z,3.90
2024-05-09T14:00:38.436Z,3.40
2024-05-09T14:03:11.994Z,4.25
2024-05-09T14:05:39.403Z,5.57
2024-05-09T14:08:07.028Z,5.82
2024-05-09T14:10:35.435Z,4.70
2024-05-09T14:13:02.586Z,3.60
2024-05-09T14:15:29.629Z,4.35
2024-05-09T14:17:58.060Z,3.40
2024-05-09T14:20:31.056Z,4.22
2024-05-09T14:23:00.940Z,3.63
2024-05-09T14:25:35.103Z,4.35
2024-05-09T14:28:04.042Z,4.38
2024-05-09T14:30:36.659Z,5.07
2024-05-09T14:33:06.233Z,3.47
2024-05-09T14:35:34.217Z,3.58
2024-05-09T14:38:01.368Z,4.88
2024-05-09T14:40:38.820Z,4.78
2024-05-09T14:43:11.287Z,3.63
2024-05-09T14:45:38.732Z,2.88
2024-05-09T14:48:07.061Z,3.60
2024-05-09T14:50:37.595Z,4.97
2024-05-09T14:53:13.636Z,3.70
2024-05-09T14:55:42.943Z,4.78
2024-05-09T14:58:11.844Z,3.33
2024-05-09T15:00:46.103Z,4.70
2024-05-09T15:03:17.402Z,2.08
2024-05-09T15:05:45.260Z,5.22
2024-05-09T15:08:12.691Z,3.67
2024-05-09T15:10:39.810Z,3.03
2024-05-09T15:13:08.822Z,4.47
2024-05-09T15:15:37.597Z,3.63
2024-05-09T15:18:05.696Z,4.20
2024-05-09T15:20:36.157Z,3.90
2024-05-09T15:23:06.653Z,5.68
2024-05-09T15:25:35.710Z,4.32
2024-05-09T15:28:03.666Z,4.07
2024-05-09T15:30:33.108Z,4.22
2024-05-09T15:33:04.072Z,3.47
2024-05-09T15:35:31.587Z,4.95
2024-05-09T15:37:58.515Z,3.75
2024-05-09T15:40:35.459Z,2.30
2024-05-09T15:43:07.597Z,4.03
2024-05-09T15:45:35.163Z,14.20
2024-05-09T15:48:03.546Z,7.53
2024-05-09T15:50:37.632Z,7.07
2024-05-09T15:53:09.018Z,4.68
2024-05-09T15:55:36.846Z,6.05
2024-05-09T15:58:04.738Z,4.18
2024-05-09T16:00:38.494Z,5.22
2024-05-09T16:03:09.871Z,3.15
2024-05-09T16:05:38.055Z,3.80
2024-05-09T16:08:06.341Z,3.28
2024-05-09T16:10:34.766Z,3.28
2024-05-09T16:13:03.398Z,3.83
2024-05-09T16:15:30.976Z,5.35
2024-05-09T16:17:58.080Z,2.78
2024-05-09T16:20:34.638Z,4.60
2024-05-09T16:23:07.142Z,2.90
2024-05-09T16:25:34.050Z,3.95
2024-05-09T16:28:01.607Z,3.00
2024-05-09T16:30:34.513Z,3.75
2024-05-09T16:33:04.455Z,4.65
2024-05-09T16:35:32.160Z,3.80
2024-05-09T16:38:01.125Z,3.50
2024-05-09T16:40:36.177Z,3.78
2024-05-09T16:43:07.295Z,4.97
2024-05-09T16:45:34.614Z,3.42
2024-05-09T16:48:01.980Z,4.65
2024-05-09T16:50:33.403Z,6.50
2024-05-09T16:53:06.381Z,6.63
2024-05-09T16:55:34.496Z,7.18
2024-05-09T16:58:02.187Z,7.15
2024-05-09T17:00:38.534Z,4.60
2024-05-09T17:03:11.185Z,3.88
2024-05-09T17:05:39.345Z,4.40
2024-05-09T17:08:07.093Z,4.85
2024-05-09T17:10:35.787Z,6.82
2024-05-09T17:13:05.014Z,8.25
2024-05-09T17:15:33.754Z,7.47
2024-05-09T17:18:01.522Z,5.35
2024-05-09T17:20:33.538Z,4.35
2024-05-09T17:23:04.319Z,4.75
2024-05-09T17:25:31.499Z,3.88
2024-05-09T17:28:05.242Z,4.10
2024-05-09T17:30:38.050Z,4.93
2024-05-09T17:33:08.962Z,5.18
2024-05-09T17:35:36.886Z,5.53
2024-05-09T17:38:05.827Z,3.30
2024-05-09T17:40:36.038Z,4.82
2024-05-09T17:43:06.255Z,5.80
2024-05-09T17:45:34.441Z,4.85
2024-05-09T17:48:01.833Z,4.35
2024-05-09T17:50:35.408Z,4.20
2024-05-09T17:53:05.451Z,4.30
2024-05-09T17:55:32.955Z,4.97
2024-05-09T17:58:00.064Z,5.10
2024-05-09T18:00:36.560Z,6.55
2024-05-09T18:03:07.670Z,4.50
2024-05-09T18:05:38.479Z,5.35
2024-05-09T18:08:06.924Z,6.53
2024-05-09T18:10:37.925Z,5.75
2024-05-09T18:13:11.300Z,4.75
2024-05-09T18:15:39.039Z,5.38
2024-05-09T18:18:07.414Z,4.50
2024-05-09T18:20:42.616Z,5.53
2024-05-09T18:23:17.922Z,3.95
2024-05-09T18:25:46.599Z,5.68
2024-05-09T18:28:14.139Z,6.18
2024-05-09T18:30:41.428Z,4.22
2024-05-09T18:33:13.709Z,3.90
2024-05-09T18:35:45.352Z,5.25
2024-05-09T18:38:12.658Z,5.03
2024-05-09T18:40:41.721Z,5.15
2024-05-09T18:43:10.524Z,3.70
2024-05-09T18:45:38.593Z,5.00
2024-05-09T18:48:07.351Z,4.38
2024-05-09T18:50:38.499Z,4.15
2024-05-09T18:53:12.203Z,5.22
2024-05-09T18:55:40.815Z,5.22
2024-05-09T18:58:07.812Z,3.33
2024-05-09T19:00:37.957Z,4.32
2024-05-09T19:03:12.448Z,4.60
2024-05-09T19:05:45.504Z,4.32
2024-05-09T19:08:14.409Z,5.38
2024-05-09T19:10:41.612Z,5.55
2024-05-09T19:13:12.105Z,5.00
2024-05-09T19:15:41.614Z,3.92
2024-05-09T19:18:10.032Z,5.35
2024-05-09T19:20:37.814Z,5.47
2024-05-09T19:23:07.976Z,9.80
2024-05-09T19:25:36.629Z,6.07
2024-05-09T19:28:05.605Z,7.15
2024-05-09T19:30:39.453Z,7.05
2024-05-09T19:33:11.138Z,6.65
2024-05-09T19:35:40.994Z,5.70
2024-05-09T19:38:08.988Z,5.45
2024-05-09T19:40:36.927Z,7.65
2024-05-09T19:43:06.011Z,7.95
2024-05-09T19:45:36.629Z,9.98
2024-05-09T19:48:06.012Z,13.05
2024-05-09T19:50:41.247Z,14.85
2024-05-09T19:53:11.855Z,11.27
2024-05-09T19:55:39.401Z,11.18
2024-05-09T19:58:07.759Z,8.30
2024-05-09T20:00:41.396Z,7.45
2024-05-09T20:03:12.756Z,7.28
2024-05-09T20:05:42.125Z,6.07
2024-05-09T20:08:09.350Z,6.63
2024-05-09T20:10:37.055Z,7.43
2024-05-09T20:13:06.396Z,6.53
2024-05-09T20:15:35.221Z,5.10
2024-05-09T20:18:02.901Z,4.22
2024-05-09T20:20:37.436Z,6.47
2024-05-09T20:23:10.186Z,4.95
2024-05-09T20:25:37.425Z,5.22
2024-05-09T20:28:06.921Z,5.10
2024-05-09T20:30:36.890Z,5.72
2024-05-09T20:33:07.101Z,8.25
2024-05-09T20:35:35.514Z,6.00
2024-05-09T20:38:03.392Z,5.85
2024-05-09T20:40:35.069Z,5.38
2024-05-09T20:43:05.837Z,5.25
2024-05-09T20:45:33.505Z,6.90
2024-05-09T20:48:01.215Z,6.55
2024-05-09T20:50:36.546Z,6.45
2024-05-09T20:53:15.341Z,4.82
2024-05-09T20:55:45.785Z,5.65
2024-05-09T20:58:13.300Z,6.43
2024-05-09T21:00:45.502Z,6.60
2024-05-09T21:03:16.486Z,5.80
2024-05-09T21:05:44.488Z,5.55
2024-05-09T21:08:11.668Z,6.72
2024-05-09T21:10:38.774Z,6.22
2024-05-09T21:13:07.014Z,5.97
2024-05-09T21:15:34.918Z,6.07
2024-05-09T21:18:03.118Z,5.93
2024-05-09T21:20:33.007Z,5.50
2024-05-09T21:23:01.594Z,5.18
2024-05-09T21:25:29.264Z,7.95
2024-05-09T21:27:56.170Z,6.72
2024-05-09T21:30:32.532Z,7.97
2024-05-09T21:33:14.568Z,6.50
2024-05-09T21:35:43.445Z,7.45
2024-05-09T21:38:11.039Z,5.93
2024-05-09T21:40:38.877Z,5.60
2024-05-09T21:43:07.046Z,6.20
2024-05-09T21:45:34.951Z,5.85
2024-05-09T21:48:07.092Z,5.97
2024-05-09T21:50:39.974Z,7.00
2024-05-09T21:53:10.720Z,5.32
2024-05-09T21:55:39.306Z,5.57
2024-05-09T21:58:06.269Z,6.15
2024-05-09T22:00:38.073Z,5.13
2024-05-09T22:03:08.355Z,7.50
2024-05-09T22:05:37.414Z,6.78
2024-05-09T22:08:05.009Z,6.72
2024-05-09T22:10:34.970Z,8.02
2024-05-09T22:13:05.205Z,6.22
2024-05-09T22:15:35.697Z,8.23
2024-05-09T22:18:04.171Z,6.72
2024-05-09T22:20:37.046Z,4.55
2024-05-09T22:23:06.213Z,6.68
2024-05-09T22:25:33.702Z,6.10
2024-05-09T22:28:01.877Z,5.68
2024-05-09T22:32:59.067Z,7.72
2024-05-09T22:35:25.962Z,5.20
2024-05-09T22:37:52.940Z,5.80
2024-05-09T22:40:28.975Z,6.63
2024-05-09T22:43:05.649Z,5.63
2024-05-09T22:45:32.783Z,6.53
2024-05-09T22:48:00.244Z,6.50
2024-05-09T22:50:32.745Z,5.35
2024-05-09T22:53:00.641Z,5.75
2024-05-09T22:55:27.523Z,5.85
2024-05-09T22:57:55.063Z,5.10
2024-05-09T23:00:30.737Z,5.70
2024-05-09T23:03:00.425Z,6.18
2024-05-09T23:05:27.645Z,8.82
2024-05-09T23:07:54.643Z,7.70
2024-05-09T23:10:28.317Z,7.63
2024-05-09T23:13:01.790Z,5.90
2024-05-09T23:15:28.993Z,4.90
2024-05-09T23:17:56.526Z,7.18
2024-05-09T23:20:33.339Z,5.53
2024-05-09T23:23:05.656Z,7.13
2024-05-09T23:25:32.684Z,8.00
2024-05-09T23:27:59.756Z,5.70
2024-05-09T23:30:34.600Z,5.70
2024-05-09T23:33:06.422Z,6.85
2024-05-09T23:35:33.421Z,7.78
2024-05-09T23:38:00.365Z,7.00
2024-05-09T23:40:37.350Z,5.78
2024-05-09T23:43:08.184Z,7.50
2024-05-09T23:45:35.371Z,7.50
2024-05-09T23:48:03.126Z,6.55
2024-05-09T23:50:34.818Z,6.78
2024-05-09T23:53:05.976Z,6.95
2024-05-09T23:55:33.610Z,7.68
2024-05-09T23:58:00.971Z,6.45
